createdAt,value
2023-04-19T00:02:16.774Z,5.33
2023-04-19T00:04:45.196Z,5.27
2023-04-19T00:07:12.116Z,4.63
2023-04-19T00:09:39.010Z,5.10
2023-04-19T00:12:05.966Z,6.57
2023-04-19T00:14:32.615Z,5.07
2023-04-19T00:16:59.355Z,5.37
2023-04-19T00:19:26.204Z,5.20
2023-04-19T00:21:52.913Z,4.87
2023-04-19T00:24:19.612Z,5.30
2023-04-19T00:26:46.348Z,4.80
2023-04-19T00:29:13.110Z,4.40
2023-04-19T00:31:41.020Z,4.87
2023-04-19T00:34:07.894Z,4.87
2023-04-19T00:36:34.798Z,4.83
2023-04-19T00:39:01.573Z,5.20
2023-04-19T00:41:28.381Z,5.70
2023-04-19T00:43:55.346Z,5.33
2023-04-19T00:46:22.648Z,5.20
2023-04-19T00:48:50.605Z,5.30
2023-04-19T00:51:17.685Z,5.20
2023-04-19T00:53:44.529Z,5.23
2023-04-19T00:56:13.540Z,4.20
2023-04-19T00:58:40.326Z,4.90
2023-04-19T01:01:07.064Z,4.83
2023-04-19T01:03:35.064Z,5.47
2023-04-19T01:06:02.512Z,4.60
2023-04-19T01:08:29.326Z,4.93
2023-04-19T01:10:56.082Z,4.60
2023-04-19T01:13:22.973Z,4.50
2023-04-19T01:15:49.780Z,5.00
2023-04-19T01:18:17.088Z,4.17
2023-04-19T01:20:43.851Z,5.10
2023-04-19T01:23:12.025Z,4.50
2023-04-19T01:25:39.069Z,4.40
2023-04-19T01:28:06.251Z,4.33
2023-04-19T01:30:33.218Z,4.50
2023-04-19T01:33:00.140Z,5.20
2023-04-19T01:35:27.445Z,4.67
2023-04-19T01:37:56.249Z,4.90
2023-04-19T01:40:27.243Z,4.23
2023-04-19T01:42:54.021Z,4.30
2023-04-19T01:45:20.778Z,4.30
2023-04-19T01:47:47.556Z,4.67
2023-04-19T01:50:14.264Z,5.77
2023-04-19T01:52:41.088Z,5.00
2023-04-19T01:55:08.168Z,4.60
2023-04-19T01:57:34.958Z,6.87
2023-04-19T02:00:02.692Z,4.87
2023-04-19T02:02:29.618Z,4.80
2023-04-19T02:04:57.677Z,4.90
2023-04-19T02:07:24.401Z,6.30
2023-04-19T02:09:51.518Z,5.70
2023-04-19T02:12:18.279Z,5.70
2023-04-19T02:14:45.087Z,6.10
2023-04-19T02:17:12.341Z,6.70
2023-04-19T02:19:39.029Z,6.27
2023-04-19T02:22:05.982Z,7.03
2023-04-19T02:24:32.772Z,6.03
2023-04-19T02:26:59.556Z,5.83
2023-04-19T02:29:26.330Z,6.30
2023-04-19T02:31:53.209Z,5.43
2023-04-19T02:34:20.114Z,6.30
2023-04-19T02:36:46.818Z,5.47
2023-04-19T02:39:13.549Z,5.87
2023-04-19T02:41:40.375Z,6.30
2023-04-19T02:44:07.118Z,5.30
2023-04-19T02:46:33.931Z,5.50
2023-04-19T02:49:03.794Z,5.80
2023-04-19T02:51:30.735Z,6.90
2023-04-19T02:53:57.576Z,6.67
2023-04-19T02:56:24.410Z,8.10
2023-04-19T02:58:53.032Z,7.90
2023-04-19T03:01:19.844Z,7.33
2023-04-19T03:03:46.599Z,8.90
2023-04-19T03:06:13.417Z,9.57
2023-04-19T03:08:40.615Z,9.47
2023-04-19T03:11:07.490Z,8.30
2023-04-19T03:13:34.419Z,9.17
2023-04-19T03:16:01.115Z,9.40
2023-04-19T03:18:27.831Z,9.60
2023-04-19T03:20:54.571Z,8.97
2023-04-19T03:23:21.567Z,10.13
2023-04-19T03:25:48.411Z,8.60
2023-04-19T03:28:15.567Z,8.90
2023-04-19T03:30:42.569Z,9.70
2023-04-19T03:33:09.676Z,9.33
2023-04-19T03:35:36.860Z,9.07
2023-04-19T03:38:04.275Z,9.30
2023-04-19T03:40:33.609Z,9.20
2023-04-19T03:43:00.392Z,9.00
2023-04-19T03:45:27.387Z,8.30
2023-04-19T03:47:54.339Z,8.80
2023-04-19T03:50:21.121Z,8.73
2023-04-19T03:52:48.010Z,8.40
2023-04-19T03:55:14.816Z,7.93
2023-04-19T03:57:41.609Z,8.23
2023-04-19T04:00:08.875Z,8.83
2023-04-19T04:02:39.845Z,8.40
2023-04-19T04:05:07.552Z,8.70
2023-04-19T04:07:34.410Z,7.90
2023-04-19T04:10:01.158Z,9.53
2023-04-19T04:12:27.889Z,8.40
2023-04-19T04:14:54.948Z,9.47
2023-04-19T04:17:22.271Z,8.00
2023-04-19T04:19:49.008Z,8.50
2023-04-19T04:22:16.591Z,8.87
2023-04-19T04:24:44.099Z,8.20
2023-04-19T04:27:11.319Z,8.77
2023-04-19T04:29:39.103Z,9.00
2023-04-19T04:32:10.667Z,8.63
2023-04-19T04:34:38.574Z,9.40
2023-04-19T04:37:05.786Z,9.60
2023-04-19T04:39:35.127Z,9.03
2023-04-19T04:42:01.981Z,9.50
2023-04-19T04:44:29.057Z,9.27
2023-04-19T04:46:55.861Z,9.40
2023-04-19T04:49:22.576Z,9.07
2023-04-19T04:51:49.402Z,10.43
2023-04-19T04:54:16.507Z,10.13
2023-04-19T04:56:43.341Z,8.97
2023-04-19T04:59:10.112Z,9.60
2023-04-19T05:01:36.965Z,10.77
2023-04-19T05:04:03.844Z,9.67
2023-04-19T05:06:31.037Z,8.63
2023-04-19T05:08:57.686Z,10.10
2023-04-19T05:11:24.550Z,8.90
2023-04-19T05:13:51.360Z,9.17
2023-04-19T05:16:18.393Z,9.80
2023-04-19T05:18:45.231Z,9.00
2023-04-19T05:21:12.138Z,9.40
2023-04-19T05:23:38.929Z,9.30
2023-04-19T05:26:05.905Z,9.63
2023-04-19T05:28:32.688Z,9.40
2023-04-19T05:30:59.721Z,9.13
2023-04-19T05:33:26.585Z,9.43
2023-04-19T05:35:53.380Z,8.70
2023-04-19T05:38:20.354Z,9.37
2023-04-19T05:40:47.206Z,10.33
2023-04-19T05:43:13.966Z,10.90
2023-04-19T05:45:40.879Z,9.00
2023-04-19T05:48:07.799Z,9.40
2023-04-19T05:50:36.631Z,9.23
2023-04-19T05:53:03.709Z,9.20
2023-04-19T05:55:30.985Z,9.07
2023-04-19T05:57:58.890Z,9.37
2023-04-19T06:00:25.869Z,10.40
2023-04-19T06:02:52.752Z,10.20
2023-04-19T06:05:19.760Z,10.30
2023-04-19T06:07:54.426Z,9.80
2023-04-19T06:10:23.661Z,9.30
2023-04-19T06:12:50.585Z,9.00
2023-04-19T06:15:17.532Z,9.17
2023-04-19T06:17:44.306Z,9.77
2023-04-19T06:20:12.441Z,9.20
2023-04-19T06:22:45.116Z,8.63
2023-04-19T06:25:12.189Z,8.43
2023-04-19T06:27:39.099Z,8.50
2023-04-19T06:30:06.549Z,7.73
2023-04-19T06:32:33.322Z,7.90
2023-04-19T06:35:00.156Z,8.10
2023-04-19T06:37:26.965Z,7.10
2023-04-19T06:39:53.864Z,6.93
2023-04-19T06:42:20.938Z,8.07
2023-04-19T06:44:47.776Z,7.07
2023-04-19T06:47:14.643Z,6.80
2023-04-19T06:49:41.336Z,6.50
2023-04-19T06:52:08.075Z,6.60
2023-04-19T06:54:34.800Z,6.10
2023-04-19T06:57:03.010Z,6.20
2023-04-19T06:59:31.904Z,6.33
2023-04-19T07:01:58.841Z,5.57
2023-04-19T07:04:26.989Z,6.00
2023-04-19T07:06:53.903Z,5.10
2023-04-19T07:09:20.837Z,5.70
2023-04-19T07:11:48.528Z,5.80
2023-04-19T07:14:15.527Z,6.10
2023-04-19T07:16:42.975Z,5.57
2023-04-19T07:19:09.769Z,6.20
2023-04-19T07:21:38.420Z,5.50
2023-04-19T07:24:06.634Z,5.43
2023-04-19T07:26:33.941Z,4.80
2023-04-19T07:29:01.201Z,4.57
2023-04-19T07:31:28.475Z,4.90
2023-04-19T07:33:55.370Z,4.97
2023-04-19T07:36:22.162Z,4.80
2023-04-19T07:38:48.945Z,4.53
2023-04-19T07:41:15.743Z,4.50
2023-04-19T07:43:42.476Z,4.37
2023-04-19T07:46:11.013Z,4.60
2023-04-19T07:48:38.280Z,5.17
2023-04-19T07:51:17.895Z,4.10
2023-04-19T07:53:46.292Z,4.20
2023-04-19T07:56:13.391Z,5.27
2023-04-19T07:58:41.333Z,4.93
2023-04-19T08:01:08.475Z,5.80
2023-04-19T08:03:36.470Z,4.10
2023-04-19T08:06:09.580Z,4.17
2023-04-19T08:08:36.838Z,3.90
2023-04-19T08:11:04.266Z,4.30
2023-04-19T08:13:31.246Z,4.07
2023-04-19T08:18:28.149Z,5.17
2023-04-19T08:20:56.271Z,4.97
2023-04-19T08:23:29.513Z,4.47
2023-04-19T08:26:01.585Z,4.60
2023-04-19T08:28:28.279Z,4.63
2023-04-19T08:30:55.438Z,4.30
2023-04-19T08:33:22.383Z,4.13
2023-04-19T08:35:49.296Z,4.30
2023-04-19T08:38:16.234Z,4.30
2023-04-19T08:40:54.927Z,4.37
2023-04-19T08:43:23.078Z,3.60
2023-04-19T08:45:50.932Z,4.20
2023-04-19T08:48:18.649Z,3.90
2023-04-19T08:51:04.121Z,3.60
2023-04-19T08:53:33.495Z,3.87
2023-04-19T08:56:10.704Z,3.57
2023-04-19T08:58:57.869Z,4.47
2023-04-19T09:01:36.138Z,4.30
2023-04-19T09:04:26.551Z,5.30
2023-04-19T09:06:55.382Z,4.30
2023-04-19T09:12:00.206Z,4.60
2023-04-19T09:14:28.485Z,4.90
2023-04-19T09:17:12.442Z,4.67
2023-04-19T09:19:49.919Z,4.90
2023-04-19T09:22:18.184Z,4.93
2023-04-19T09:27:29.843Z,3.70
2023-04-19T09:30:01.622Z,2.90
2023-04-19T09:32:29.895Z,4.27
2023-04-19T09:34:57.649Z,4.20
2023-04-19T09:37:39.134Z,3.60
2023-04-19T09:40:28.133Z,3.67
2023-04-19T09:43:10.689Z,3.40
2023-04-19T09:45:43.173Z,4.20
2023-04-19T09:48:11.314Z,2.70
2023-04-19T09:51:00.886Z,3.70
2023-04-19T09:53:35.401Z,3.50
2023-04-19T09:56:04.034Z,7.50
2023-04-19T09:58:42.484Z,5.93
2023-04-19T10:01:17.568Z,3.57
2023-04-19T10:03:49.975Z,5.50
2023-04-19T10:08:50.989Z,3.33
2023-04-19T10:11:21.872Z,4.90
2023-04-19T10:13:50.464Z,3.00
2023-04-19T10:16:19.936Z,3.57
2023-04-19T10:18:49.869Z,5.10
2023-04-19T10:21:18.111Z,14.83
2023-04-19T10:23:45.232Z,3.33
2023-04-19T10:26:12.043Z,3.27
2023-04-19T10:28:38.728Z,3.10
2023-04-19T10:31:05.848Z,3.53
2023-04-19T10:33:37.305Z,3.00
2023-04-19T10:36:08.350Z,2.73
2023-04-19T10:38:48.964Z,3.53
2023-04-19T10:41:17.877Z,3.10
2023-04-19T10:43:48.014Z,3.30
2023-04-19T10:46:17.955Z,3.80
2023-04-19T10:48:55.155Z,3.80
2023-04-19T10:51:32.936Z,2.30
2023-04-19T10:54:04.470Z,3.80
2023-04-19T10:56:34.254Z,2.87
2023-04-19T10:59:21.265Z,2.83
2023-04-19T11:01:51.068Z,2.77
2023-04-19T11:04:30.152Z,2.40
2023-04-19T11:07:01.371Z,2.80
2023-04-19T11:09:39.320Z,3.00
2023-04-19T11:12:14.237Z,2.27
2023-04-19T11:14:43.097Z,4.27
2023-04-19T11:17:25.956Z,3.10
2023-04-19T11:20:01.227Z,3.60
2023-04-19T11:22:45.933Z,3.53
2023-04-19T11:25:17.532Z,2.60
2023-04-19T11:27:49.033Z,2.50
2023-04-19T11:30:19.604Z,3.17
2023-04-19T11:32:48.400Z,2.47
2023-04-19T11:35:18.248Z,2.20
2023-04-19T11:37:45.957Z,3.13
2023-04-19T11:40:18.185Z,2.53
2023-04-19T11:42:45.673Z,2.50
2023-04-19T11:45:22.174Z,3.57
2023-04-19T11:47:56.241Z,3.40
2023-04-19T11:50:32.455Z,7.20
2023-04-19T11:53:00.150Z,3.27
2023-04-19T11:55:26.890Z,2.10
2023-04-19T11:57:53.610Z,2.53
2023-04-19T12:00:28.436Z,2.30
2023-04-19T12:02:55.603Z,2.30
2023-04-19T12:05:24.368Z,2.43
2023-04-19T12:08:06.831Z,2.40
2023-04-19T12:10:34.349Z,2.00
2023-04-19T12:13:01.776Z,3.60
2023-04-19T12:15:44.362Z,1.87
2023-04-19T12:18:11.266Z,3.40
2023-04-19T12:20:43.851Z,2.10
2023-04-19T12:23:16.646Z,1.63
2023-04-19T12:25:45.088Z,1.60
2023-04-19T12:28:12.187Z,1.53
2023-04-19T12:30:39.999Z,1.50
2023-04-19T12:33:07.954Z,1.77
2023-04-19T12:35:36.078Z,1.80
2023-04-19T12:38:03.463Z,2.20
2023-04-19T12:40:30.728Z,1.73
2023-04-19T12:42:57.556Z,2.07
2023-04-19T12:45:24.385Z,1.80
2023-04-19T12:47:51.217Z,2.50
2023-04-19T12:50:17.980Z,2.83
2023-04-19T12:52:45.774Z,1.80
2023-04-19T12:55:12.671Z,2.10
2023-04-19T12:57:39.710Z,1.80
2023-04-19T13:00:07.665Z,2.37
2023-04-19T13:02:35.199Z,2.10
2023-04-19T13:05:02.637Z,2.43
2023-04-19T13:07:29.459Z,2.53
2023-04-19T13:09:56.897Z,2.00
2023-04-19T13:12:24.127Z,1.90
2023-04-19T13:14:52.549Z,1.80
2023-04-19T13:17:20.412Z,3.10
2023-04-19T13:19:47.563Z,2.10
2023-04-19T13:22:15.514Z,2.00
2023-04-19T13:24:42.338Z,2.10
2023-04-19T13:27:09.362Z,2.00
2023-04-19T13:29:36.623Z,2.60
2023-04-19T13:32:07.172Z,3.03
2023-04-19T13:34:35.385Z,2.70
2023-04-19T13:37:02.189Z,2.10
2023-04-19T13:39:28.998Z,2.00
2023-04-19T13:41:55.740Z,2.63
2023-04-19T13:44:22.676Z,1.93
2023-04-19T13:46:49.733Z,1.80
2023-04-19T13:49:17.103Z,2.23
2023-04-19T13:51:50.088Z,1.97
2023-04-19T13:54:19.374Z,2.23
2023-04-19T13:56:48.101Z,2.20
2023-04-19T13:59:16.018Z,1.90
2023-04-19T14:01:42.790Z,2.33
2023-04-19T14:04:09.814Z,3.30
2023-04-19T14:06:37.299Z,3.27
2023-04-19T14:09:04.201Z,2.83
2023-04-19T14:11:31.210Z,2.20
2023-04-19T14:13:58.404Z,2.10
2023-04-19T14:16:25.462Z,2.13
2023-04-19T14:18:52.865Z,2.30
2023-04-19T14:21:19.775Z,2.17
2023-04-19T14:23:46.597Z,2.10
2023-04-19T14:26:15.170Z,2.00
2023-04-19T14:28:42.044Z,2.90
2023-04-19T14:31:08.803Z,2.20
2023-04-19T14:33:36.196Z,2.30
2023-04-19T14:36:03.376Z,2.10
2023-04-19T14:38:30.252Z,2.13
2023-04-19T14:40:57.118Z,2.83
2023-04-19T14:43:23.901Z,2.50
2023-04-19T14:45:51.872Z,2.40
2023-04-19T14:48:20.928Z,2.50
2023-04-19T14:50:48.982Z,2.60
2023-04-19T14:53:15.800Z,2.30
2023-04-19T14:55:42.628Z,2.83
2023-04-19T14:58:09.701Z,2.80
2023-04-19T15:00:36.412Z,2.40
2023-04-19T15:03:03.391Z,3.00
2023-04-19T15:05:30.464Z,3.10
2023-04-19T15:07:57.573Z,2.10
2023-04-19T15:10:24.459Z,2.37
2023-04-19T15:12:51.534Z,2.00
2023-04-19T15:15:19.320Z,2.30
2023-04-19T15:17:46.787Z,2.60
2023-04-19T15:20:13.683Z,2.30
2023-04-19T15:22:40.426Z,2.07
2023-04-19T15:25:07.361Z,2.13
2023-04-19T15:27:34.337Z,2.20
2023-04-19T15:30:01.116Z,2.20
2023-04-19T15:32:30.526Z,1.97
2023-04-19T15:34:57.461Z,2.20
2023-04-19T15:37:24.222Z,2.40
2023-04-19T15:39:51.011Z,2.50
2023-04-19T15:42:17.816Z,2.57
2023-04-19T15:44:44.617Z,2.80
2023-04-19T15:47:11.416Z,3.20
2023-04-19T15:49:40.495Z,1.97
2023-04-19T15:52:09.048Z,2.53
2023-04-19T15:54:37.743Z,2.57
2023-04-19T15:57:04.664Z,2.63
2023-04-19T15:59:31.965Z,2.30
2023-04-19T16:01:58.894Z,2.57
2023-04-19T16:04:25.946Z,2.13
2023-04-19T16:06:52.808Z,2.17
2023-04-19T16:09:19.687Z,2.57
2023-04-19T16:11:46.544Z,4.00
2023-04-19T16:14:13.266Z,2.50
2023-04-19T16:16:40.154Z,2.43
2023-04-19T16:19:07.154Z,4.83
2023-04-19T16:21:33.869Z,2.93
2023-04-19T16:24:03.325Z,2.53
2023-04-19T16:26:30.050Z,2.60
2023-04-19T16:28:57.062Z,2.50
2023-04-19T16:31:23.912Z,3.00
2023-04-19T16:33:50.967Z,2.20
2023-04-19T16:36:17.804Z,2.13
2023-04-19T16:38:45.424Z,2.50
2023-04-19T16:41:12.300Z,2.50
2023-04-19T16:43:39.020Z,2.37
2023-04-19T16:46:07.237Z,1.70
2023-04-19T16:48:34.102Z,2.30
2023-04-19T16:51:00.925Z,2.50
2023-04-19T16:53:27.758Z,1.87
2023-04-19T16:55:56.591Z,2.37
2023-04-19T16:58:23.607Z,2.00
2023-04-19T17:00:50.504Z,2.40
2023-04-19T17:03:17.378Z,2.47
2023-04-19T17:05:44.267Z,2.03
2023-04-19T17:08:12.181Z,2.17
2023-04-19T17:10:38.975Z,2.60
2023-04-19T17:13:05.806Z,3.60
2023-04-19T17:15:32.749Z,2.87
2023-04-19T17:17:59.962Z,1.90
2023-04-19T17:20:26.741Z,1.80
2023-04-19T17:22:53.471Z,1.80
2023-04-19T17:25:22.241Z,2.70
2023-04-19T17:27:49.286Z,2.13
2023-04-19T17:30:16.343Z,1.67
2023-04-19T17:32:43.114Z,1.70
2023-04-19T17:35:09.964Z,1.70
2023-04-19T17:37:36.938Z,2.10
2023-04-19T17:40:03.931Z,1.80
2023-04-19T17:42:31.918Z,1.70
2023-04-19T17:45:00.380Z,1.93
2023-04-19T17:47:27.760Z,1.80
2023-04-19T17:50:05.413Z,2.00
2023-04-19T17:52:32.246Z,1.73
2023-04-19T17:54:59.024Z,1.90
2023-04-19T17:57:28.575Z,2.27
2023-04-19T17:59:55.770Z,2.03
2023-04-19T18:02:23.663Z,2.13
2023-04-19T18:04:50.670Z,1.70
2023-04-19T18:07:17.639Z,1.67
2023-04-19T18:09:44.464Z,2.13
2023-04-19T18:12:11.688Z,1.53
2023-04-19T18:14:39.122Z,1.97
2023-04-19T18:17:06.532Z,2.10
2023-04-19T18:19:34.369Z,2.17
2023-04-19T18:22:01.714Z,2.20
2023-04-19T18:24:28.489Z,2.33
2023-04-19T18:26:55.382Z,2.93
2023-04-19T18:29:24.266Z,4.57
2023-04-19T18:31:52.874Z,2.63
2023-04-19T18:34:19.983Z,1.70
2023-04-19T18:36:46.769Z,1.90
2023-04-19T18:39:14.237Z,2.27
2023-04-19T18:41:41.500Z,1.90
2023-04-19T18:44:34.633Z,5.90
2023-04-19T18:46:55.707Z,2.83
2023-04-19T18:49:22.679Z,2.30
2023-04-19T18:51:51.149Z,2.30
2023-04-19T18:54:20.768Z,1.80
2023-04-19T18:59:17.537Z,1.90
2023-04-19T19:01:48.307Z,2.10
2023-04-19T19:06:50.694Z,2.07
2023-04-19T19:09:17.794Z,2.47
2023-04-19T19:11:56.234Z,2.13
2023-04-19T19:14:23.835Z,2.30
2023-04-19T19:16:52.894Z,1.97
2023-04-19T19:19:22.452Z,2.20
2023-04-19T19:21:49.558Z,1.90
2023-04-19T19:24:16.447Z,2.23
2023-04-19T19:26:43.163Z,2.20
2023-04-19T19:29:11.809Z,2.37
2023-04-19T19:31:38.714Z,2.70
2023-04-19T19:34:23.475Z,2.30
2023-04-19T19:36:53.571Z,2.33
2023-04-19T19:39:20.397Z,2.43
2023-04-19T19:44:17.663Z,2.83
2023-04-19T19:46:44.761Z,2.23
2023-04-19T19:49:13.136Z,1.90
2023-04-19T19:51:56.628Z,2.40
2023-04-19T19:54:24.805Z,1.83
2023-04-19T19:59:29.198Z,2.17
2023-04-19T20:01:57.238Z,2.30
2023-04-19T20:04:24.307Z,1.97
2023-04-19T20:09:21.985Z,2.67
2023-04-19T20:11:48.861Z,2.90
2023-04-19T20:14:15.686Z,2.13
2023-04-19T20:16:42.419Z,2.40
2023-04-19T20:19:13.290Z,2.27
2023-04-19T20:21:40.028Z,3.30
2023-04-19T20:24:07.781Z,2.60
2023-04-19T20:26:34.661Z,5.60
2023-04-19T20:29:01.911Z,1.70
2023-04-19T20:31:29.111Z,2.47
2023-04-19T20:33:56.237Z,2.20
2023-04-19T20:36:23.436Z,2.27
2023-04-19T20:38:50.960Z,2.20
2023-04-19T20:41:18.391Z,2.33
2023-04-19T20:43:45.205Z,2.40
2023-04-19T20:46:12.166Z,2.10
2023-04-19T20:48:39.139Z,2.80
2023-04-19T20:51:05.972Z,2.10
2023-04-19T20:53:32.691Z,1.97
2023-04-19T20:56:00.317Z,2.40
2023-04-19T20:58:27.135Z,2.23
2023-04-19T21:00:53.940Z,2.70
2023-04-19T21:03:21.111Z,2.37
2023-04-19T21:05:47.977Z,2.00
2023-04-19T21:08:16.274Z,2.33
2023-04-19T21:10:43.030Z,2.53
2023-04-19T21:13:09.831Z,2.27
2023-04-19T21:15:37.041Z,2.50
2023-04-19T21:18:04.051Z,1.93
2023-04-19T21:20:30.917Z,2.20
2023-04-19T21:22:57.657Z,2.43
2023-04-19T21:25:24.477Z,3.07
2023-04-19T21:27:51.320Z,2.40
2023-04-19T21:30:18.378Z,2.33
2023-04-19T21:32:45.402Z,2.47
2023-04-19T21:35:12.153Z,2.63
2023-04-19T21:37:38.902Z,2.40
2023-04-19T21:40:06.494Z,3.13
2023-04-19T21:42:33.208Z,5.17
2023-04-19T21:44:59.929Z,3.43
2023-04-19T21:47:27.596Z,3.57
2023-04-19T21:49:54.411Z,3.33
2023-04-19T21:52:21.310Z,2.70
2023-04-19T21:54:48.874Z,3.27
2023-04-19T21:57:17.610Z,3.23
2023-04-19T21:59:44.305Z,4.30
2023-04-19T22:02:11.183Z,3.40
2023-04-19T22:04:39.643Z,4.47
2023-04-19T22:07:07.634Z,6.07
2023-04-19T22:09:34.369Z,5.10
2023-04-19T22:12:01.619Z,4.80
2023-04-19T22:14:28.560Z,4.07
2023-04-19T22:16:56.552Z,5.93
2023-04-19T22:19:24.495Z,4.80
2023-04-19T22:21:51.343Z,9.07
2023-04-19T22:24:18.035Z,6.70
2023-04-19T22:26:44.755Z,4.37
2023-04-19T22:29:11.416Z,3.80
2023-04-19T22:31:38.215Z,3.07
2023-04-19T22:34:05.013Z,3.60
2023-04-19T22:36:31.693Z,3.03
2023-04-19T22:38:58.430Z,2.57
2023-04-19T22:41:25.170Z,2.80
2023-04-19T22:43:51.910Z,3.50
2023-04-19T22:46:18.612Z,3.60
2023-04-19T22:48:47.899Z,3.07
2023-04-19T22:51:18.132Z,3.50
2023-04-19T22:53:45.012Z,3.40
2023-04-19T22:56:11.776Z,4.03
2023-04-19T22:58:38.569Z,3.77
2023-04-19T23:01:05.358Z,4.03
2023-04-19T23:03:33.011Z,5.33
2023-04-19T23:06:00.957Z,3.50
2023-04-19T23:08:29.764Z,2.90
2023-04-19T23:10:56.494Z,2.80
2023-04-19T23:13:23.181Z,2.40
2023-04-19T23:15:50.202Z,3.57
2023-04-19T23:18:17.637Z,3.07
2023-04-19T23:20:44.659Z,4.07
2023-04-19T23:23:11.388Z,3.10
2023-04-19T23:25:38.108Z,2.80
2023-04-19T23:28:04.822Z,5.40
2023-04-19T23:30:32.084Z,5.30
2023-04-19T23:32:58.925Z,5.43
2023-04-19T23:35:25.862Z,3.23
2023-04-19T23:37:52.680Z,3.10
2023-04-19T23:40:19.587Z,2.53
2023-04-19T23:42:46.380Z,2.87
2023-04-19T23:45:13.181Z,3.27
2023-04-19T23:47:40.015Z,3.57
2023-04-19T23:50:07.443Z,3.37
2023-04-19T23:52:34.123Z,3.00
2023-04-19T23:55:00.950Z,3.50
2023-04-19T23:57:27.684Z,3.43
2023-04-19T23:59:54.471Z,3.10
